createdAt,value
2019-03-26T00:00:40.160Z,18.81
2019-03-26T00:03:07.915Z,18.83
2019-03-26T00:05:35.770Z,18.84
2019-03-26T00:08:03.797Z,18.84
2019-03-26T00:10:31.587Z,18.88
2019-03-26T00:12:59.338Z,18.87
2019-03-26T00:15:27.111Z,18.84
2019-03-26T00:17:54.840Z,18.84
2019-03-26T00:20:22.608Z,18.87
2019-03-26T00:22:50.445Z,18.87
2019-03-26T00:25:18.281Z,18.89
2019-03-26T00:27:46.049Z,18.87
2019-03-26T00:30:13.843Z,18.86
2019-03-26T00:32:41.646Z,18.88
2019-03-26T00:35:09.456Z,18.86
2019-03-26T00:37:37.371Z,18.86
2019-03-26T00:40:05.704Z,18.81
2019-03-26T00:42:33.487Z,18.74
2019-03-26T00:45:01.239Z,18.67
2019-03-26T00:47:29.046Z,18.55
2019-03-26T00:49:56.829Z,18.51
2019-03-26T00:52:24.631Z,18.47
2019-03-26T00:54:52.531Z,18.42
2019-03-26T00:57:20.252Z,18.39
2019-03-26T00:59:48.031Z,18.37
2019-03-26T01:02:15.819Z,18.35
2019-03-26T01:04:43.671Z,18.33
2019-03-26T01:07:11.490Z,18.29
2019-03-26T01:09:39.234Z,18.24
2019-03-26T01:12:06.979Z,18.24
2019-03-26T01:14:34.752Z,18.24
2019-03-26T01:17:02.540Z,18.24
2019-03-26T01:19:30.301Z,18.22
2019-03-26T01:21:58.141Z,18.21
2019-03-26T01:24:25.913Z,18.18
2019-03-26T01:26:53.785Z,18.16
2019-03-26T01:29:21.603Z,18.17
2019-03-26T01:31:49.364Z,18.15
2019-03-26T01:34:17.101Z,18.15
2019-03-26T01:36:44.862Z,18.14
2019-03-26T01:39:12.619Z,18.17
2019-03-26T01:41:40.476Z,18.17
2019-03-26T01:44:08.335Z,18.14
2019-03-26T01:46:36.075Z,18.16
2019-03-26T01:49:03.858Z,18.15
2019-03-26T01:51:31.699Z,18.14
2019-03-26T01:53:59.433Z,18.17
2019-03-26T01:56:27.172Z,18.18
2019-03-26T01:58:54.909Z,18.17
2019-03-26T02:01:22.699Z,18.18
2019-03-26T02:03:50.604Z,18.13
2019-03-26T02:06:18.306Z,18.15
2019-03-26T02:08:46.052Z,18.15
2019-03-26T02:11:13.828Z,18.18
2019-03-26T02:13:41.600Z,18.14
2019-03-26T02:16:09.331Z,18.15
2019-03-26T02:18:37.155Z,18.15
2019-03-26T02:21:04.927Z,18.13
2019-03-26T02:23:32.859Z,18.11
2019-03-26T02:26:00.620Z,18.14
2019-03-26T02:28:28.411Z,18.12
2019-03-26T02:30:56.243Z,18.12
2019-03-26T02:33:24.061Z,18.14
2019-03-26T02:35:52.023Z,18.11
2019-03-26T02:38:19.767Z,18.09
2019-03-26T02:40:47.569Z,18.13
2019-03-26T02:43:15.315Z,18.14
2019-03-26T02:45:43.124Z,18.14
2019-03-26T02:48:10.883Z,18.14
2019-03-26T02:50:38.623Z,18.14
2019-03-26T02:53:08.689Z,18.12
2019-03-26T02:55:36.438Z,18.12
2019-03-26T02:58:04.191Z,18.14
2019-03-26T03:00:31.970Z,18.12
2019-03-26T03:02:59.752Z,18.14
2019-03-26T03:05:35.128Z,18.13
2019-03-26T03:07:57.516Z,18.11
2019-03-26T03:10:25.335Z,18.09
2019-03-26T03:12:53.237Z,18.09
2019-03-26T03:15:20.968Z,18.07
2019-03-26T03:17:48.741Z,18.04
2019-03-26T03:20:16.489Z,18.03
2019-03-26T03:22:44.246Z,18.02
2019-03-26T03:25:12.035Z,18.02
2019-03-26T03:27:39.805Z,18.03
2019-03-26T03:30:07.581Z,18.09
2019-03-26T03:32:35.442Z,18.08
2019-03-26T03:35:03.314Z,18.04
2019-03-26T03:37:31.218Z,18.03
2019-03-26T03:39:58.991Z,18.02
2019-03-26T03:42:26.767Z,18.03
2019-03-26T03:44:54.621Z,18.06
2019-03-26T03:47:22.354Z,18.04
2019-03-26T03:49:50.214Z,18.07
2019-03-26T03:52:17.923Z,18.05
2019-03-26T03:54:45.847Z,18.02
2019-03-26T03:57:13.871Z,18.01
2019-03-26T03:59:41.785Z,18.00
2019-03-26T04:02:09.555Z,18.01
2019-03-26T04:04:37.331Z,17.97
2019-03-26T04:07:05.115Z,17.96
2019-03-26T04:09:32.919Z,17.99
2019-03-26T04:12:00.820Z,18.04
2019-03-26T04:14:28.575Z,18.04
2019-03-26T04:16:56.308Z,18.01
2019-03-26T04:19:24.063Z,18.01
2019-03-26T04:21:51.826Z,18.02
2019-03-26T04:24:19.591Z,18.04
2019-03-26T04:26:47.443Z,18.03
2019-03-26T04:29:15.186Z,18.05
2019-03-26T04:31:42.927Z,18.05
2019-03-26T04:34:10.643Z,18.10
2019-03-26T04:36:38.401Z,18.14
2019-03-26T04:39:06.539Z,18.13
2019-03-26T04:41:34.466Z,18.14
2019-03-26T04:44:02.205Z,18.13
2019-03-26T04:46:29.949Z,18.16
2019-03-26T04:48:57.712Z,18.17
2019-03-26T04:51:25.474Z,18.16
2019-03-26T04:53:53.259Z,18.14
2019-03-26T04:56:21.018Z,18.14
2019-03-26T04:58:48.760Z,18.14
2019-03-26T05:01:16.486Z,18.14
2019-03-26T05:03:44.229Z,18.12
2019-03-26T05:06:12.103Z,18.14
2019-03-26T05:08:40.018Z,18.14
2019-03-26T05:11:07.769Z,18.17
2019-03-26T05:13:35.530Z,18.16
2019-03-26T05:16:03.311Z,18.14
2019-03-26T05:18:31.087Z,18.16
2019-03-26T05:20:59.016Z,18.14
2019-03-26T05:23:26.851Z,18.16
2019-03-26T05:25:54.679Z,18.09
2019-03-26T05:28:22.551Z,18.06
2019-03-26T05:30:52.224Z,17.99
2019-03-26T05:33:22.289Z,17.98
2019-03-26T05:35:51.641Z,17.93
2019-03-26T05:38:19.759Z,17.92
2019-03-26T05:40:47.800Z,17.93
2019-03-26T05:43:16.085Z,17.94
2019-03-26T05:45:45.992Z,17.93
2019-03-26T05:48:14.222Z,17.95
2019-03-26T05:50:42.194Z,17.93
2019-03-26T05:53:10.370Z,17.96
2019-03-26T05:55:38.151Z,17.98
2019-03-26T05:58:06.096Z,18.02
2019-03-26T06:00:33.892Z,18.07
2019-03-26T06:03:01.610Z,18.04
2019-03-26T06:05:29.489Z,18.03
2019-03-26T06:07:57.265Z,18.00
2019-03-26T06:10:25.014Z,17.98
2019-03-26T06:12:53.090Z,18.02
2019-03-26T06:15:20.909Z,18.04
2019-03-26T06:17:48.678Z,18.09
2019-03-26T06:20:16.516Z,18.12
2019-03-26T06:22:44.436Z,18.16
2019-03-26T06:25:12.267Z,18.15
2019-03-26T06:27:40.026Z,18.16
2019-03-26T06:30:08.345Z,18.15
2019-03-26T06:32:36.128Z,18.14
2019-03-26T06:35:04.860Z,18.11
2019-03-26T06:37:32.610Z,18.10
2019-03-26T06:40:00.686Z,18.08
2019-03-26T06:42:28.548Z,18.08
2019-03-26T06:44:56.402Z,18.09
2019-03-26T06:47:24.153Z,18.07
2019-03-26T06:49:52.003Z,18.07
2019-03-26T06:52:19.839Z,18.11
2019-03-26T06:54:51.592Z,18.12
2019-03-26T06:57:18.689Z,18.18
2019-03-26T06:59:47.063Z,18.29
2019-03-26T07:02:20.941Z,18.36
2019-03-26T07:04:49.297Z,18.35
2019-03-26T07:07:30.573Z,18.34
2019-03-26T07:09:47.079Z,18.30
2019-03-26T07:12:14.823Z,18.34
2019-03-26T07:14:42.580Z,18.39
2019-03-26T07:17:10.344Z,18.41
2019-03-26T07:19:38.158Z,18.43
2019-03-26T07:22:06.306Z,18.44
2019-03-26T07:24:39.787Z,18.48
2019-03-26T07:27:08.821Z,18.53
2019-03-26T07:29:36.520Z,18.54
2019-03-26T07:32:04.265Z,18.50
2019-03-26T07:34:32.081Z,18.45
2019-03-26T07:36:59.834Z,18.46
2019-03-26T07:39:27.529Z,18.43
2019-03-26T07:41:55.382Z,18.37
2019-03-26T07:44:23.098Z,18.36
2019-03-26T07:46:50.898Z,18.36
2019-03-26T07:49:18.828Z,18.36
2019-03-26T07:51:46.601Z,18.34
2019-03-26T07:54:14.477Z,18.35
2019-03-26T07:56:42.275Z,18.37
2019-03-26T07:59:10.001Z,18.37
2019-03-26T08:01:37.722Z,18.35
2019-03-26T08:04:05.511Z,18.38
2019-03-26T08:06:33.365Z,18.36
2019-03-26T08:09:01.123Z,18.36
2019-03-26T08:11:28.904Z,18.34
2019-03-26T08:13:56.867Z,18.36
2019-03-26T08:16:24.613Z,18.36
2019-03-26T08:18:52.310Z,18.34
2019-03-26T08:21:20.056Z,18.36
2019-03-26T08:23:47.819Z,18.40
2019-03-26T08:26:15.830Z,18.43
2019-03-26T08:28:43.922Z,18.41
2019-03-26T08:31:11.684Z,18.36
2019-03-26T08:33:39.486Z,18.33
2019-03-26T08:36:07.239Z,18.32
2019-03-26T08:38:35.025Z,18.34
2019-03-26T08:41:02.779Z,18.36
2019-03-26T08:43:30.563Z,18.38
2019-03-26T08:45:58.369Z,18.38
2019-03-26T08:48:26.115Z,18.40
2019-03-26T08:50:54.178Z,18.43
2019-03-26T08:53:22.076Z,18.46
2019-03-26T08:55:49.851Z,18.50
2019-03-26T08:58:17.581Z,18.54
2019-03-26T09:00:45.332Z,18.52
2019-03-26T09:03:13.199Z,18.54
2019-03-26T09:05:40.912Z,18.63
2019-03-26T09:08:08.682Z,18.63
2019-03-26T09:10:36.411Z,18.62
2019-03-26T09:13:04.232Z,18.55
2019-03-26T09:15:32.021Z,18.56
2019-03-26T09:17:59.814Z,18.58
2019-03-26T09:20:27.692Z,18.61
2019-03-26T09:22:55.443Z,18.70
2019-03-26T09:25:23.189Z,18.77
2019-03-26T09:27:52.456Z,18.76
2019-03-26T09:30:20.506Z,18.75
2019-03-26T09:32:48.247Z,18.74
2019-03-26T09:35:16.008Z,18.73
2019-03-26T09:37:43.799Z,18.71
2019-03-26T09:40:11.560Z,18.70
2019-03-26T09:42:39.310Z,18.73
2019-03-26T09:45:07.901Z,18.75
2019-03-26T09:47:35.626Z,18.72
2019-03-26T09:50:04.239Z,18.76
2019-03-26T09:52:31.983Z,18.79
2019-03-26T09:54:59.767Z,18.78
2019-03-26T09:57:27.489Z,18.79
2019-03-26T09:59:55.304Z,18.79
2019-03-26T10:02:23.042Z,18.79
2019-03-26T10:04:50.923Z,18.76
2019-03-26T10:07:21.616Z,18.72
2019-03-26T10:09:48.315Z,18.72
2019-03-26T10:12:16.306Z,18.73
2019-03-26T10:14:44.028Z,18.77
2019-03-26T10:17:11.823Z,18.79
2019-03-26T10:19:39.614Z,18.82
2019-03-26T10:22:08.475Z,18.84
2019-03-26T10:24:36.380Z,18.85
2019-03-26T10:27:04.349Z,18.85
2019-03-26T10:29:32.255Z,18.88
2019-03-26T10:31:59.962Z,18.92
2019-03-26T10:34:28.007Z,18.82
2019-03-26T10:36:55.737Z,18.93
2019-03-26T10:39:23.526Z,18.96
2019-03-26T10:41:51.416Z,18.97
2019-03-26T10:44:19.258Z,18.96
2019-03-26T10:46:47.011Z,18.95
2019-03-26T10:49:14.782Z,18.90
2019-03-26T10:51:42.583Z,18.93
2019-03-26T10:54:10.310Z,18.91
2019-03-26T10:56:38.144Z,18.91
2019-03-26T10:59:06.077Z,18.85
2019-03-26T11:01:33.926Z,18.83
2019-03-26T11:04:01.835Z,18.81
2019-03-26T11:06:29.845Z,18.84
2019-03-26T11:08:57.728Z,18.88
2019-03-26T11:11:25.808Z,18.89
2019-03-26T11:13:53.802Z,18.84
2019-03-26T11:16:22.880Z,18.84
2019-03-26T11:18:50.821Z,18.83
2019-03-26T11:21:18.850Z,18.82
2019-03-26T11:23:46.612Z,18.83
2019-03-26T11:26:14.442Z,18.81
2019-03-26T11:28:42.376Z,18.81
2019-03-26T11:31:10.367Z,18.83
2019-03-26T11:33:38.743Z,18.79
2019-03-26T11:36:06.764Z,18.76
2019-03-26T11:38:34.712Z,18.78
2019-03-26T11:41:02.755Z,18.80
2019-03-26T11:43:32.102Z,18.82
2019-03-26T11:46:00.125Z,18.85
2019-03-26T11:48:27.874Z,18.85
2019-03-26T11:50:55.652Z,18.78
2019-03-26T11:53:23.359Z,18.85
2019-03-26T11:55:51.075Z,18.83
2019-03-26T11:58:29.992Z,18.83
2019-03-26T12:00:48.547Z,18.83
2019-03-26T12:03:16.236Z,18.84
2019-03-26T12:05:44.099Z,18.85
2019-03-26T12:08:11.847Z,18.84
2019-03-26T12:10:39.547Z,18.83
2019-03-26T12:13:07.380Z,18.80
2019-03-26T12:15:35.171Z,18.77
2019-03-26T12:18:02.959Z,18.76
2019-03-26T12:20:30.691Z,18.77
2019-03-26T12:22:58.469Z,18.77
2019-03-26T12:25:26.220Z,18.81
2019-03-26T12:27:54.041Z,18.86
2019-03-26T12:30:35.404Z,18.89
2019-03-26T12:33:03.414Z,18.91
2019-03-26T12:35:31.276Z,18.97
2019-03-26T12:37:59.048Z,19.02
2019-03-26T12:40:26.861Z,19.07
2019-03-26T12:42:54.622Z,19.11
2019-03-26T12:45:22.461Z,19.14
2019-03-26T12:47:50.501Z,19.14
2019-03-26T12:50:18.387Z,19.09
2019-03-26T12:52:46.103Z,19.06
2019-03-26T12:55:13.875Z,19.03
2019-03-26T12:57:41.686Z,19.07
2019-03-26T13:00:09.502Z,19.07
2019-03-26T13:02:37.287Z,19.04
2019-03-26T13:05:05.198Z,19.07
2019-03-26T13:07:33.054Z,19.13
2019-03-26T13:10:12.838Z,19.12
2019-03-26T13:12:30.403Z,19.06
2019-03-26T13:14:59.491Z,19.09
2019-03-26T13:17:32.130Z,19.13
2019-03-26T13:19:59.911Z,19.18
2019-03-26T13:22:27.736Z,19.18
2019-03-26T13:24:55.553Z,19.14
2019-03-26T13:27:23.321Z,19.08
2019-03-26T13:29:51.065Z,19.11
2019-03-26T13:32:18.933Z,19.12
2019-03-26T13:34:46.643Z,19.13
2019-03-26T13:37:14.419Z,19.19
2019-03-26T13:39:42.139Z,19.22
2019-03-26T13:42:09.981Z,19.17
2019-03-26T13:44:37.747Z,19.09
2019-03-26T13:47:05.517Z,19.02
2019-03-26T13:49:33.315Z,19.03
2019-03-26T13:52:01.262Z,19.12
2019-03-26T13:54:29.202Z,19.18
2019-03-26T13:56:57.077Z,19.23
2019-03-26T13:59:24.871Z,19.20
2019-03-26T14:01:52.697Z,19.15
2019-03-26T14:04:20.461Z,19.09
2019-03-26T14:06:48.342Z,19.03
2019-03-26T14:09:16.095Z,19.00
2019-03-26T14:11:43.992Z,19.01
2019-03-26T14:14:11.887Z,19.03
2019-03-26T14:16:39.637Z,19.07
2019-03-26T14:19:07.423Z,19.06
2019-03-26T14:21:35.175Z,19.03
2019-03-26T14:24:02.923Z,18.95
2019-03-26T14:26:30.697Z,18.88
2019-03-26T14:28:58.465Z,18.86
2019-03-26T14:31:26.179Z,18.85
2019-03-26T14:33:54.078Z,18.82
2019-03-26T14:36:21.822Z,18.82
2019-03-26T14:38:50.459Z,18.79
2019-03-26T14:41:18.258Z,18.74
2019-03-26T14:43:46.167Z,18.71
2019-03-26T14:46:14.057Z,18.71
2019-03-26T14:48:41.804Z,18.67
2019-03-26T14:51:09.679Z,18.67
2019-03-26T14:53:37.471Z,18.65
2019-03-26T14:56:05.771Z,18.63
2019-03-26T14:58:33.527Z,18.63
2019-03-26T15:01:01.356Z,18.62
2019-03-26T15:03:29.146Z,18.64
2019-03-26T15:06:00.666Z,18.64
2019-03-26T15:08:28.563Z,18.62
2019-03-26T15:11:07.489Z,18.59
2019-03-26T15:13:25.946Z,18.60
2019-03-26T15:15:54.795Z,18.58
2019-03-26T15:18:22.746Z,18.57
2019-03-26T15:20:50.910Z,18.55
2019-03-26T15:23:24.275Z,18.46
2019-03-26T15:25:58.979Z,18.57
2019-03-26T15:28:26.811Z,18.55
2019-03-26T15:30:54.589Z,18.53
2019-03-26T15:33:22.344Z,18.56
2019-03-26T15:35:50.102Z,18.56
2019-03-26T15:38:18.030Z,18.51
2019-03-26T15:40:45.810Z,18.49
2019-03-26T15:43:13.881Z,18.48
2019-03-26T15:45:41.622Z,18.46
2019-03-26T15:48:09.619Z,18.46
2019-03-26T15:50:41.190Z,18.46
2019-03-26T15:53:08.924Z,18.45
2019-03-26T15:55:36.695Z,18.42
2019-03-26T15:58:04.425Z,18.42
2019-03-26T16:00:32.424Z,18.41
2019-03-26T16:03:00.171Z,18.40
2019-03-26T16:05:28.271Z,18.42
2019-03-26T16:07:56.038Z,18.40
2019-03-26T16:10:23.821Z,18.38
2019-03-26T16:12:51.641Z,18.37
2019-03-26T16:15:19.537Z,18.35
2019-03-26T16:17:47.259Z,18.36
2019-03-26T16:20:15.177Z,18.35
2019-03-26T16:22:43.110Z,18.36
2019-03-26T16:25:10.821Z,18.35
2019-03-26T16:27:38.587Z,18.32
2019-03-26T16:30:06.333Z,18.31
2019-03-26T16:32:34.098Z,18.30
2019-03-26T16:35:02.141Z,18.23
2019-03-26T16:37:29.873Z,18.27
2019-03-26T16:39:57.627Z,18.30
2019-03-26T16:42:25.425Z,18.32
2019-03-26T16:44:53.271Z,18.31
2019-03-26T16:47:20.983Z,18.30
2019-03-26T16:49:48.845Z,18.28
2019-03-26T16:52:16.616Z,18.28
2019-03-26T16:54:44.323Z,18.28
2019-03-26T16:57:12.070Z,18.30
2019-03-26T16:59:39.906Z,18.32
2019-03-26T17:02:07.672Z,18.28
2019-03-26T17:04:35.426Z,18.26
2019-03-26T17:07:03.325Z,18.26
2019-03-26T17:09:31.128Z,18.28
2019-03-26T17:12:03.603Z,18.25
2019-03-26T17:14:36.580Z,18.27
2019-03-26T17:17:04.545Z,18.34
2019-03-26T17:19:32.747Z,18.33
2019-03-26T17:22:00.639Z,18.31
2019-03-26T17:24:28.505Z,18.27
2019-03-26T17:26:56.452Z,18.26
2019-03-26T17:29:25.589Z,18.23
2019-03-26T17:31:54.417Z,18.23
2019-03-26T17:34:22.349Z,18.22
2019-03-26T17:36:50.330Z,18.26
2019-03-26T17:39:18.399Z,18.27
2019-03-26T17:41:46.264Z,18.25
2019-03-26T17:44:14.136Z,18.26
2019-03-26T17:46:42.033Z,18.27
2019-03-26T17:49:09.809Z,18.29
2019-03-26T17:51:40.621Z,18.30
2019-03-26T17:54:08.831Z,18.26
2019-03-26T17:56:36.749Z,18.24
2019-03-26T17:59:07.166Z,18.22
2019-03-26T18:01:37.178Z,18.21
2019-03-26T18:04:05.802Z,18.20
2019-03-26T18:06:34.331Z,18.19
2019-03-26T18:09:02.240Z,18.18
2019-03-26T18:11:31.287Z,18.17
2019-03-26T18:13:59.289Z,18.20
2019-03-26T18:16:27.149Z,18.24
2019-03-26T18:18:55.150Z,18.29
2019-03-26T18:21:22.910Z,18.30
2019-03-26T18:23:50.774Z,18.29
2019-03-26T18:26:18.545Z,18.29
2019-03-26T18:28:46.259Z,18.27
2019-03-26T18:31:14.075Z,18.25
2019-03-26T18:33:41.815Z,18.25
2019-03-26T18:36:09.662Z,18.24
2019-03-26T18:38:37.390Z,18.24
2019-03-26T18:41:05.188Z,18.23
2019-03-26T18:43:32.939Z,18.19
2019-03-26T18:46:00.661Z,18.21
2019-03-26T18:48:28.532Z,18.22
2019-03-26T18:50:56.253Z,18.22
2019-03-26T18:53:24.010Z,18.21
2019-03-26T18:55:51.783Z,18.19
2019-03-26T18:58:19.579Z,18.19
2019-03-26T19:00:47.333Z,18.21
2019-03-26T19:03:15.082Z,18.17
2019-03-26T19:05:42.868Z,18.18
2019-03-26T19:08:10.653Z,18.17
2019-03-26T19:10:39.015Z,18.22
2019-03-26T19:13:18.471Z,18.23
2019-03-26T19:15:36.874Z,18.24
2019-03-26T19:18:04.771Z,18.30
2019-03-26T19:20:32.690Z,18.27
2019-03-26T19:23:00.714Z,18.27
2019-03-26T19:25:28.790Z,18.31
2019-03-26T19:27:56.772Z,18.32
2019-03-26T19:30:24.646Z,18.29
2019-03-26T19:32:52.452Z,18.29
2019-03-26T19:35:20.384Z,18.31
2019-03-26T19:37:48.142Z,18.26
2019-03-26T19:40:15.935Z,18.20
2019-03-26T19:42:43.735Z,18.17
2019-03-26T19:45:11.488Z,18.17
2019-03-26T19:47:39.286Z,18.16
2019-03-26T19:50:07.097Z,18.15
2019-03-26T19:52:34.851Z,18.15
2019-03-26T19:55:02.624Z,18.21
2019-03-26T19:57:30.449Z,18.15
2019-03-26T19:59:58.283Z,18.23
2019-03-26T20:02:26.023Z,18.24
2019-03-26T20:04:53.847Z,18.24
2019-03-26T20:07:21.797Z,18.27
2019-03-26T20:09:50.141Z,18.29
2019-03-26T20:12:19.604Z,18.24
2019-03-26T20:14:47.530Z,18.24
2019-03-26T20:17:15.400Z,18.25
2019-03-26T20:19:43.297Z,18.25
2019-03-26T20:22:11.132Z,18.26
2019-03-26T20:24:38.889Z,18.34
2019-03-26T20:27:06.780Z,18.32
2019-03-26T20:29:34.595Z,18.32
2019-03-26T20:32:02.289Z,18.34
2019-03-26T20:34:30.185Z,18.36
2019-03-26T20:36:58.057Z,18.37
2019-03-26T20:39:25.829Z,18.38
2019-03-26T20:41:53.761Z,18.32
2019-03-26T20:44:21.562Z,18.29
2019-03-26T20:46:49.342Z,18.30
2019-03-26T20:49:17.163Z,18.32
2019-03-26T20:51:44.918Z,18.29
2019-03-26T20:54:12.732Z,18.30
2019-03-26T20:56:40.914Z,18.30
2019-03-26T20:59:08.862Z,18.31
2019-03-26T21:01:36.861Z,18.30
2019-03-26T21:04:04.590Z,18.29
2019-03-26T21:06:32.452Z,18.25
2019-03-26T21:09:00.243Z,18.25
2019-03-26T21:11:28.054Z,18.23
2019-03-26T21:13:55.999Z,18.21
2019-03-26T21:16:23.778Z,18.21
2019-03-26T21:18:51.526Z,18.21
2019-03-26T21:21:19.322Z,18.19
2019-03-26T21:23:47.048Z,18.18
2019-03-26T21:26:14.918Z,18.16
2019-03-26T21:28:42.680Z,18.16
2019-03-26T21:31:10.401Z,18.20
2019-03-26T21:33:38.156Z,18.25
2019-03-26T21:36:06.199Z,18.27
2019-03-26T21:38:33.981Z,18.30
2019-03-26T21:41:01.708Z,18.31
2019-03-26T21:43:29.545Z,18.31
2019-03-26T21:45:57.289Z,18.33
2019-03-26T21:48:25.077Z,18.28
2019-03-26T21:50:52.830Z,18.25
2019-03-26T21:53:20.588Z,18.25
2019-03-26T21:55:48.622Z,18.25
2019-03-26T21:58:17.385Z,18.23
2019-03-26T22:00:48.666Z,18.24
2019-03-26T22:03:16.377Z,18.24
2019-03-26T22:05:44.100Z,18.24
2019-03-26T22:08:11.909Z,18.24
2019-03-26T22:10:39.818Z,18.25
2019-03-26T22:13:07.742Z,18.29
2019-03-26T22:15:35.848Z,18.29
2019-03-26T22:18:04.026Z,18.34
2019-03-26T22:20:31.927Z,18.35
2019-03-26T22:23:03.991Z,18.22
2019-03-26T22:25:34.896Z,18.15
2019-03-26T22:28:03.036Z,18.11
2019-03-26T22:30:31.041Z,18.09
2019-03-26T22:32:58.923Z,18.07
2019-03-26T22:35:29.630Z,18.09
2019-03-26T22:37:57.881Z,18.08
2019-03-26T22:40:25.667Z,18.08
2019-03-26T22:42:53.433Z,18.12
2019-03-26T22:45:21.315Z,18.10
2019-03-26T22:47:49.091Z,18.12
2019-03-26T22:50:16.838Z,18.13
2019-03-26T22:52:44.599Z,18.14
2019-03-26T22:55:12.328Z,18.13
2019-03-26T22:57:40.080Z,18.17
2019-03-26T23:00:10.312Z,18.17
2019-03-26T23:02:38.646Z,18.18
2019-03-26T23:05:06.970Z,18.15
2019-03-26T23:07:34.723Z,18.19
2019-03-26T23:10:02.614Z,18.21
2019-03-26T23:12:30.660Z,18.21
2019-03-26T23:15:00.423Z,18.18
2019-03-26T23:17:31.332Z,18.25
2019-03-26T23:19:59.488Z,18.36
2019-03-26T23:22:28.310Z,18.41
2019-03-26T23:24:59.504Z,18.43
2019-03-26T23:27:27.671Z,18.41
2019-03-26T23:29:55.943Z,18.35
2019-03-26T23:32:24.204Z,18.27
2019-03-26T23:34:52.778Z,18.23
2019-03-26T23:37:20.922Z,18.23
2019-03-26T23:39:48.708Z,18.23
2019-03-26T23:42:17.158Z,18.20
2019-03-26T23:44:57.519Z,18.23
2019-03-26T23:47:14.883Z,18.26
2019-03-26T23:49:42.658Z,18.29
2019-03-26T23:52:10.474Z,18.31
2019-03-26T23:54:38.376Z,18.31
2019-03-26T23:57:06.358Z,18.31
2019-03-26T23:59:34.451Z,18.31
